createdAt,value
2019-02-27T00:04:24.723Z,56.65
2019-02-27T00:06:50.474Z,54.60
2019-02-27T00:09:16.260Z,58.03
2019-02-27T00:11:46.015Z,57.87
2019-02-27T00:14:09.708Z,57.60
2019-02-27T00:16:35.761Z,57.63
2019-02-27T00:19:01.856Z,57.65
2019-02-27T00:21:27.900Z,56.13
2019-02-27T00:23:56.735Z,56.15
2019-02-27T00:26:42.516Z,54.85
2019-02-27T00:29:08.878Z,57.05
2019-02-27T00:31:34.637Z,56.37
2019-02-27T00:34:00.567Z,54.53
2019-02-27T00:36:26.370Z,59.57
2019-02-27T00:38:52.135Z,57.43
2019-02-27T00:41:17.899Z,56.83
2019-02-27T00:43:43.671Z,54.80
2019-02-27T00:46:10.724Z,56.47
2019-02-27T00:48:37.086Z,55.70
2019-02-27T00:51:02.846Z,54.63
2019-02-27T00:53:28.606Z,54.37
2019-02-27T00:55:54.385Z,55.63
2019-02-27T00:58:20.149Z,55.33
2019-02-27T01:00:45.922Z,53.40
2019-02-27T01:03:11.694Z,54.33
2019-02-27T01:05:40.971Z,52.97
2019-02-27T01:08:05.147Z,54.35
2019-02-27T01:10:30.945Z,54.60
2019-02-27T01:12:58.098Z,56.93
2019-02-27T01:15:24.386Z,57.58
2019-02-27T01:17:50.136Z,56.07
2019-02-27T01:20:15.910Z,58.10
2019-02-27T01:22:41.757Z,55.47
2019-02-27T01:25:07.644Z,57.83
2019-02-27T01:27:37.742Z,60.23
2019-02-27T01:30:01.070Z,56.20
2019-02-27T01:32:28.840Z,55.63
2019-02-27T01:34:54.508Z,56.02
2019-02-27T01:37:20.289Z,54.03
2019-02-27T01:39:46.050Z,54.30
2019-02-27T01:42:11.829Z,56.83
2019-02-27T01:45:21.051Z,54.70
2019-02-27T01:47:46.931Z,55.85
2019-02-27T01:50:33.384Z,56.70
2019-02-27T01:52:59.154Z,54.00
2019-02-27T01:55:24.897Z,53.43
2019-02-27T01:57:50.691Z,54.23
2019-02-27T02:00:16.427Z,55.33
2019-02-27T02:02:42.216Z,59.17
2019-02-27T02:05:07.978Z,49.90
2019-02-27T02:07:33.757Z,56.23
2019-02-27T02:09:59.510Z,58.07
2019-02-27T02:12:25.382Z,56.83
2019-02-27T02:15:32.801Z,53.03
2019-02-27T02:18:38.343Z,54.55
2019-02-27T02:21:45.782Z,50.00
2019-02-27T02:28:18.452Z,53.90
2019-02-27T02:31:25.906Z,55.35
2019-02-27T02:34:51.348Z,51.95
2019-02-27T02:38:16.753Z,53.15
2019-02-27T02:41:24.207Z,55.73
2019-02-27T02:47:56.943Z,55.35
2019-02-27T02:51:02.535Z,60.40
2019-02-27T02:54:27.969Z,53.78
2019-02-27T02:57:36.192Z,56.77
2019-02-27T03:01:00.819Z,51.65
2019-02-27T03:04:12.550Z,52.70
2019-02-27T03:07:35.594Z,49.80
2019-02-27T03:10:42.786Z,52.98
2019-02-27T03:14:08.460Z,50.52
2019-02-27T03:17:33.886Z,50.98
2019-02-27T03:20:41.309Z,53.25
2019-02-27T03:23:52.206Z,52.50
2019-02-27T03:33:37.188Z,50.63
2019-02-27T03:36:44.598Z,53.23
2019-02-27T03:40:11.797Z,53.45
2019-02-27T03:43:19.436Z,56.18
2019-02-27T03:46:26.893Z,53.70
2019-02-27T03:52:46.021Z,54.27
2019-02-27T03:55:53.445Z,50.48
2019-02-27T03:59:18.899Z,48.90
2019-02-27T04:02:26.331Z,52.30
2019-02-27T04:05:31.874Z,51.25
2019-02-27T04:08:57.309Z,55.25
2019-02-27T04:12:04.726Z,48.92
2019-02-27T04:17:44.239Z,54.10
2019-02-27T04:20:14.673Z,54.20
2019-02-27T04:22:37.727Z,51.83
2019-02-27T04:25:45.106Z,49.60
2019-02-27T04:28:10.861Z,51.50
2019-02-27T04:30:36.636Z,49.90
2019-02-27T04:33:02.389Z,49.37
2019-02-27T04:35:28.161Z,52.60
2019-02-27T04:37:54.283Z,51.70
2019-02-27T04:40:21.588Z,51.70
2019-02-27T04:42:47.337Z,48.37
2019-02-27T04:45:13.186Z,49.20
2019-02-27T04:47:38.997Z,52.97
2019-02-27T04:50:46.436Z,52.90
2019-02-27T04:53:12.196Z,52.65
2019-02-27T04:55:38.000Z,49.53
2019-02-27T04:58:03.755Z,49.00
2019-02-27T05:00:29.534Z,50.73
2019-02-27T05:02:55.304Z,51.63
2019-02-27T05:05:21.105Z,54.33
2019-02-27T05:07:46.872Z,50.37
2019-02-27T05:10:12.658Z,50.57
2019-02-27T05:12:38.412Z,49.07
2019-02-27T05:15:45.857Z,46.87
2019-02-27T05:18:11.618Z,47.80
2019-02-27T05:20:37.383Z,47.83
2019-02-27T05:23:03.129Z,50.23
2019-02-27T05:25:28.906Z,48.93
2019-02-27T05:27:54.654Z,48.70
2019-02-27T05:30:20.425Z,53.03
2019-02-27T05:32:46.184Z,49.37
2019-02-27T05:35:11.949Z,48.30
2019-02-27T05:37:39.303Z,49.20
2019-02-27T05:40:47.057Z,49.65
2019-02-27T05:43:13.905Z,50.33
2019-02-27T05:45:40.490Z,50.08
2019-02-27T05:48:06.250Z,49.53
2019-02-27T05:50:34.221Z,53.77
2019-02-27T05:52:59.669Z,51.83
2019-02-27T05:55:25.434Z,49.03
2019-02-27T05:57:51.562Z,54.03
2019-02-27T06:02:52.716Z,53.70
2019-02-27T06:05:18.493Z,53.90
2019-02-27T06:07:44.254Z,54.23
2019-02-27T06:10:55.120Z,54.60
2019-02-27T06:13:19.386Z,51.92
2019-02-27T06:15:45.160Z,51.43
2019-02-27T06:18:10.917Z,54.63
2019-02-27T06:20:38.972Z,78.57
2019-02-27T06:23:04.989Z,91.85
2019-02-27T06:25:31.997Z,80.15
2019-02-27T06:27:57.759Z,83.37
2019-02-27T06:30:23.525Z,74.90
2019-02-27T06:32:49.309Z,61.07
2019-02-27T06:35:15.057Z,62.63
2019-02-27T06:37:40.837Z,59.70
2019-02-27T06:40:26.470Z,55.70
2019-02-27T06:42:53.831Z,54.75
2019-02-27T06:45:19.908Z,55.25
2019-02-27T06:47:45.680Z,53.07
2019-02-27T06:53:25.167Z,53.42
2019-02-27T06:55:50.927Z,53.07
2019-02-27T06:58:16.713Z,51.87
2019-02-27T07:00:42.458Z,49.77
2019-02-27T07:03:08.225Z,51.33
2019-02-27T07:05:33.977Z,51.97
2019-02-27T07:08:02.144Z,48.87
2019-02-27T07:10:27.424Z,49.40
2019-02-27T07:12:54.709Z,47.83
2019-02-27T07:18:36.493Z,49.50
2019-02-27T07:21:02.887Z,47.27
2019-02-27T07:23:28.636Z,49.67
2019-02-27T07:25:54.386Z,51.77
2019-02-27T07:28:20.170Z,48.47
2019-02-27T07:30:45.922Z,51.53
2019-02-27T07:33:11.696Z,50.03
2019-02-27T07:35:37.448Z,49.40
2019-02-27T07:38:03.220Z,47.63
2019-02-27T07:40:28.982Z,48.50
2019-02-27T07:42:54.760Z,46.50
2019-02-27T07:46:02.185Z,44.87
2019-02-27T07:48:27.951Z,46.57
2019-02-27T07:50:53.703Z,46.23
2019-02-27T07:53:19.484Z,44.20
2019-02-27T07:56:05.135Z,46.10
2019-02-27T07:58:33.669Z,43.40
2019-02-27T08:00:58.587Z,46.10
2019-02-27T08:03:24.360Z,42.53
2019-02-27T08:05:50.152Z,46.03
2019-02-27T08:08:15.950Z,45.43
2019-02-27T08:10:41.728Z,45.60
2019-02-27T08:13:07.524Z,45.40
2019-02-27T08:15:33.297Z,40.93
2019-02-27T08:17:59.128Z,43.73
2019-02-27T08:20:24.908Z,41.47
2019-02-27T08:22:50.659Z,42.30
2019-02-27T08:25:58.105Z,43.60
2019-02-27T08:28:23.903Z,37.57
2019-02-27T08:30:49.679Z,44.90
2019-02-27T08:33:15.469Z,42.17
2019-02-27T08:35:41.244Z,43.70
2019-02-27T08:38:07.031Z,36.77
2019-02-27T08:40:32.806Z,38.93
2019-02-27T08:42:58.599Z,47.13
2019-02-27T08:45:27.081Z,42.27
2019-02-27T08:47:52.072Z,43.00
2019-02-27T08:50:59.518Z,35.73
2019-02-27T08:53:26.790Z,36.70
2019-02-27T08:55:52.997Z,38.13
2019-02-27T08:58:18.770Z,36.23
2019-02-27T09:00:47.101Z,36.23
2019-02-27T09:03:20.020Z,33.80
2019-02-27T09:05:40.142Z,32.93
2019-02-27T09:08:18.840Z,37.07
2019-02-27T09:10:44.650Z,31.93
2019-02-27T09:13:10.441Z,32.73
2019-02-27T09:15:36.224Z,36.53
2019-02-27T09:18:02.511Z,34.80
2019-02-27T09:20:29.705Z,32.57
2019-02-27T09:22:55.942Z,30.20
2019-02-27T09:25:43.057Z,32.07
2019-02-27T09:28:09.908Z,32.00
2019-02-27T09:30:56.432Z,31.97
2019-02-27T09:33:22.209Z,34.50
2019-02-27T09:35:47.993Z,30.00
2019-02-27T09:38:13.781Z,32.87
2019-02-27T09:40:39.723Z,33.40
2019-02-27T09:43:06.291Z,32.77
2019-02-27T09:46:19.240Z,33.33
2019-02-27T09:48:42.611Z,31.87
2019-02-27T09:51:08.401Z,31.30
2019-02-27T09:53:36.849Z,32.83
2019-02-27T09:56:01.885Z,28.37
2019-02-27T09:58:47.556Z,27.40
2019-02-27T10:01:55.023Z,29.47
2019-02-27T10:04:21.054Z,33.47
2019-02-27T10:06:46.851Z,31.97
2019-02-27T10:12:39.705Z,30.50
2019-02-27T10:15:05.494Z,32.67
2019-02-27T10:17:31.268Z,31.97
2019-02-27T10:20:01.453Z,30.47
2019-02-27T10:22:24.742Z,34.93
2019-02-27T10:24:50.512Z,28.77
2019-02-27T10:27:16.299Z,30.33
2019-02-27T10:29:42.093Z,31.03
2019-02-27T10:32:07.881Z,30.40
2019-02-27T10:34:33.672Z,28.30
2019-02-27T10:36:59.484Z,28.70
2019-02-27T10:39:25.342Z,31.10
2019-02-27T10:41:51.131Z,29.90
2019-02-27T10:44:16.914Z,30.93
2019-02-27T10:46:42.697Z,30.20
2019-02-27T10:49:08.469Z,30.97
2019-02-27T10:51:34.267Z,30.57
2019-02-27T10:54:04.055Z,33.40
2019-02-27T10:56:27.727Z,31.83
2019-02-27T10:58:53.502Z,31.27
2019-02-27T11:01:19.289Z,32.50
2019-02-27T11:03:45.073Z,32.47
2019-02-27T11:06:10.876Z,29.37
2019-02-27T11:08:36.666Z,30.50
2019-02-27T11:11:44.142Z,28.87
2019-02-27T11:14:09.920Z,28.10
2019-02-27T11:16:35.713Z,27.93
2019-02-27T11:19:01.503Z,28.37
2019-02-27T11:21:27.288Z,29.10
2019-02-27T11:23:53.056Z,28.10
2019-02-27T11:26:18.847Z,29.57
2019-02-27T11:28:47.517Z,32.17
2019-02-27T11:31:12.310Z,28.27
2019-02-27T11:33:38.097Z,27.03
2019-02-27T11:36:05.639Z,27.97
2019-02-27T11:38:31.669Z,27.50
2019-02-27T11:40:57.448Z,27.63
2019-02-27T11:43:23.250Z,35.13
2019-02-27T11:45:49.027Z,24.53
2019-02-27T11:48:14.818Z,24.20
2019-02-27T11:50:40.597Z,24.47
2019-02-27T11:53:06.378Z,21.93
2019-02-27T11:55:32.146Z,24.73
2019-02-27T11:57:58.066Z,22.27
2019-02-27T12:01:05.515Z,22.50
2019-02-27T12:03:31.301Z,23.30
2019-02-27T12:05:57.078Z,23.27
2019-02-27T12:08:25.804Z,24.47
2019-02-27T12:10:50.562Z,26.53
2019-02-27T12:13:16.349Z,23.20
2019-02-27T12:15:43.611Z,24.37
2019-02-27T12:18:09.813Z,23.80
2019-02-27T12:20:35.596Z,23.77
2019-02-27T12:23:01.389Z,23.10
2019-02-27T12:25:29.826Z,22.67
2019-02-27T12:30:37.170Z,22.90
2019-02-27T12:33:00.884Z,24.83
2019-02-27T12:36:09.050Z,21.20
2019-02-27T12:38:34.870Z,22.17
2019-02-27T12:41:00.638Z,19.27
2019-02-27T12:43:26.425Z,19.57
2019-02-27T12:45:52.202Z,17.70
2019-02-27T12:48:18.015Z,16.33
2019-02-27T12:51:04.416Z,17.80
2019-02-27T12:53:30.296Z,15.10
2019-02-27T12:55:56.074Z,16.17
2019-02-27T12:58:24.380Z,15.90
2019-02-27T13:01:09.422Z,15.27
2019-02-27T13:03:35.280Z,15.00
2019-02-27T13:06:01.682Z,15.47
2019-02-27T13:08:28.794Z,14.63
2019-02-27T13:10:54.931Z,15.13
2019-02-27T13:13:23.275Z,15.53
2019-02-27T13:15:48.457Z,15.13
2019-02-27T13:18:14.260Z,15.50
2019-02-27T13:20:40.034Z,18.20
2019-02-27T13:23:05.821Z,15.00
2019-02-27T13:25:31.600Z,15.23
2019-02-27T13:27:57.374Z,16.00
2019-02-27T13:31:04.826Z,16.17
2019-02-27T13:33:32.903Z,14.50
2019-02-27T13:35:59.673Z,14.57
2019-02-27T13:38:25.988Z,15.47
2019-02-27T13:40:51.782Z,14.30
2019-02-27T13:43:17.559Z,13.93
2019-02-27T13:45:47.375Z,24.27
2019-02-27T13:48:11.053Z,14.87
2019-02-27T13:50:36.843Z,16.37
2019-02-27T13:53:02.737Z,14.60
2019-02-27T13:55:28.534Z,16.03
2019-02-27T13:57:58.810Z,14.60
2019-02-27T14:00:41.883Z,15.63
2019-02-27T14:03:12.097Z,15.70
2019-02-27T14:05:36.305Z,15.30
2019-02-27T14:08:03.108Z,15.17
2019-02-27T14:11:10.569Z,15.30
2019-02-27T14:13:36.368Z,16.57
2019-02-27T14:16:02.165Z,16.83
2019-02-27T14:18:27.930Z,17.63
2019-02-27T14:20:53.713Z,18.17
2019-02-27T14:23:19.488Z,17.37
2019-02-27T14:25:45.271Z,17.77
2019-02-27T14:28:11.045Z,20.37
2019-02-27T14:31:18.507Z,18.10
2019-02-27T14:33:44.286Z,16.60
2019-02-27T14:36:10.080Z,17.40
2019-02-27T14:38:35.870Z,19.07
2019-02-27T14:41:01.657Z,19.70
2019-02-27T14:43:27.968Z,18.37
2019-02-27T14:45:55.123Z,18.63
2019-02-27T14:48:21.582Z,21.07
2019-02-27T14:50:48.598Z,18.73
2019-02-27T14:53:16.627Z,18.80
2019-02-27T14:55:42.067Z,18.60
2019-02-27T14:58:07.872Z,18.50
2019-02-27T15:00:53.524Z,19.90
2019-02-27T15:03:19.353Z,17.87
2019-02-27T15:05:45.401Z,19.60
2019-02-27T15:11:20.225Z,22.07
2019-02-27T15:13:46.037Z,19.37
2019-02-27T15:16:11.824Z,20.90
2019-02-27T15:18:37.595Z,18.87
2019-02-27T15:21:03.384Z,18.40
2019-02-27T15:23:29.158Z,18.97
2019-02-27T15:25:54.946Z,18.17
2019-02-27T15:28:20.771Z,22.53
2019-02-27T15:30:47.355Z,18.07
2019-02-27T15:33:16.335Z,18.73
2019-02-27T15:35:42.002Z,18.20
2019-02-27T15:38:11.387Z,18.73
2019-02-27T15:40:35.462Z,19.13
2019-02-27T15:43:01.313Z,18.87
2019-02-27T15:48:41.474Z,19.33
2019-02-27T15:51:08.332Z,21.07
2019-02-27T15:53:34.113Z,21.93
2019-02-27T15:56:00.049Z,23.00
2019-02-27T15:58:28.134Z,22.43
2019-02-27T16:01:13.558Z,21.67
2019-02-27T16:03:39.345Z,24.97
2019-02-27T16:06:05.730Z,21.53
2019-02-27T16:08:32.855Z,22.43
2019-02-27T16:10:58.612Z,23.10
2019-02-27T16:13:24.403Z,22.80
2019-02-27T16:15:50.218Z,22.00
2019-02-27T16:18:15.988Z,22.40
2019-02-27T16:20:41.765Z,22.73
2019-02-27T16:23:07.547Z,22.30
2019-02-27T16:25:33.313Z,23.63
2019-02-27T16:27:59.099Z,22.17
2019-02-27T16:30:44.757Z,22.93
2019-02-27T16:33:10.566Z,21.97
2019-02-27T16:35:41.648Z,27.53
2019-02-27T16:38:04.048Z,22.37
2019-02-27T16:40:29.823Z,22.07
2019-02-27T16:42:55.722Z,23.23
2019-02-27T16:48:48.593Z,23.57
2019-02-27T16:51:14.373Z,28.93
2019-02-27T16:53:40.161Z,32.47
2019-02-27T16:56:08.260Z,30.13
2019-02-27T16:58:33.832Z,27.97
2019-02-27T17:01:01.339Z,28.63
2019-02-27T17:03:27.133Z,29.53
2019-02-27T17:05:52.905Z,27.53
2019-02-27T17:08:18.710Z,27.90
2019-02-27T17:10:44.484Z,27.40
2019-02-27T17:13:14.406Z,28.63
2019-02-27T17:15:57.833Z,27.13
2019-02-27T17:18:28.038Z,30.93
2019-02-27T17:20:51.321Z,26.60
2019-02-27T17:23:17.109Z,28.63
2019-02-27T17:25:42.882Z,27.03
2019-02-27T17:28:08.679Z,26.93
2019-02-27T17:34:01.550Z,27.63
2019-02-27T17:36:31.548Z,26.97
2019-02-27T17:38:55.032Z,28.03
2019-02-27T17:41:20.804Z,26.53
2019-02-27T17:43:46.606Z,27.93
2019-02-27T17:46:12.390Z,27.80
2019-02-27T17:48:58.072Z,26.87
2019-02-27T17:51:23.861Z,28.00
2019-02-27T17:53:49.656Z,25.67
2019-02-27T17:56:16.272Z,27.83
2019-02-27T17:58:43.134Z,27.77
2019-02-27T18:04:16.128Z,26.70
2019-02-27T18:07:01.809Z,27.77
2019-02-27T18:09:27.640Z,29.57
2019-02-27T18:11:53.424Z,28.13
2019-02-27T18:14:19.250Z,29.67
2019-02-27T18:16:45.008Z,28.17
2019-02-27T18:19:10.801Z,28.27
2019-02-27T18:21:36.599Z,25.87
2019-02-27T18:24:44.060Z,26.17
2019-02-27T18:27:29.738Z,26.87
2019-02-27T18:30:37.207Z,24.83
2019-02-27T18:33:02.989Z,27.67
2019-02-27T18:35:29.634Z,23.83
2019-02-27T18:37:56.483Z,26.30
2019-02-27T18:40:22.388Z,25.67
2019-02-27T18:42:48.259Z,24.73
2019-02-27T18:45:55.719Z,23.77
2019-02-27T18:48:21.503Z,24.97
2019-02-27T18:50:47.430Z,24.33
2019-02-27T18:53:13.990Z,27.67
2019-02-27T18:55:40.904Z,27.83
2019-02-27T18:58:06.685Z,28.00
2019-02-27T19:00:33.380Z,29.07
2019-02-27T19:03:41.819Z,26.53
2019-02-27T19:06:07.713Z,26.17
2019-02-27T19:08:33.538Z,26.50
2019-02-27T19:10:59.340Z,25.77
2019-02-27T19:13:25.126Z,25.60
2019-02-27T19:15:50.985Z,30.50
2019-02-27T19:18:16.716Z,26.30
2019-02-27T19:21:24.211Z,35.00
2019-02-27T19:24:09.908Z,43.23
2019-02-27T19:26:55.621Z,40.67
2019-02-27T19:29:21.422Z,37.23
2019-02-27T19:31:48.405Z,37.07
2019-02-27T19:34:14.928Z,35.43
2019-02-27T19:36:40.738Z,32.70
2019-02-27T19:39:06.526Z,30.17
2019-02-27T19:41:38.754Z,28.37
2019-02-27T19:44:00.033Z,28.37
2019-02-27T19:46:25.852Z,29.17
2019-02-27T19:48:51.637Z,32.10
2019-02-27T19:51:20.232Z,26.50
2019-02-27T19:53:45.233Z,26.00
2019-02-27T19:56:11.053Z,30.13
2019-02-27T19:58:36.833Z,31.10
2019-02-27T20:01:02.727Z,30.30
2019-02-27T20:03:29.265Z,27.80
2019-02-27T20:06:16.109Z,30.33
2019-02-27T20:08:45.427Z,29.57
2019-02-27T20:11:09.711Z,29.30
2019-02-27T20:13:35.493Z,27.40
2019-02-27T20:16:01.285Z,29.83
2019-02-27T20:18:27.076Z,29.63
2019-02-27T20:20:52.939Z,29.23
2019-02-27T20:23:18.716Z,30.20
2019-02-27T20:29:17.987Z,41.17
2019-02-27T20:31:43.783Z,41.87
2019-02-27T20:34:11.626Z,47.60
2019-02-27T20:36:37.288Z,44.33
2019-02-27T20:39:44.746Z,39.30
2019-02-27T20:42:10.545Z,37.70
2019-02-27T20:44:37.346Z,35.50
2019-02-27T20:47:04.061Z,30.63
2019-02-27T20:49:29.842Z,32.00
2019-02-27T20:51:55.641Z,31.47
2019-02-27T20:54:21.435Z,32.47
2019-02-27T20:56:55.345Z,30.87
2019-02-27T20:59:14.930Z,30.27
2019-02-27T21:01:46.853Z,31.37
2019-02-27T21:04:08.506Z,32.67
2019-02-27T21:06:34.282Z,38.00
2019-02-27T21:09:00.099Z,36.57
2019-02-27T21:11:29.546Z,33.27
2019-02-27T21:13:53.569Z,31.00
2019-02-27T21:16:19.373Z,30.87
2019-02-27T21:18:45.182Z,30.03
2019-02-27T21:21:11.043Z,30.33
2019-02-27T21:23:36.864Z,29.40
2019-02-27T21:26:02.736Z,28.90
2019-02-27T21:28:28.679Z,31.40
2019-02-27T21:31:36.243Z,28.67
2019-02-27T21:34:02.071Z,31.33
2019-02-27T21:36:28.013Z,31.83
2019-02-27T21:38:53.831Z,35.87
2019-02-27T21:41:19.610Z,35.77
2019-02-27T21:43:45.457Z,34.23
2019-02-27T21:46:11.721Z,33.37
2019-02-27T21:48:38.959Z,35.07
2019-02-27T21:51:04.852Z,34.97
2019-02-27T21:53:30.709Z,36.47
2019-02-27T21:55:56.527Z,35.37
2019-02-27T21:58:22.338Z,38.03
2019-02-27T22:00:49.014Z,36.80
2019-02-27T22:03:15.901Z,36.13
2019-02-27T22:08:29.135Z,37.17
2019-02-27T22:10:54.908Z,36.60
2019-02-27T22:13:28.878Z,39.77
2019-02-27T22:18:37.151Z,39.37
2019-02-27T22:23:50.937Z,42.10
2019-02-27T22:26:24.919Z,41.33
2019-02-27T22:34:38.050Z,42.87
2019-02-27T22:37:04.116Z,42.07
2019-02-27T22:39:31.696Z,42.63
2019-02-27T22:41:58.158Z,45.27
2019-02-27T22:44:26.313Z,44.70
2019-02-27T22:46:52.142Z,43.90
2019-02-27T22:49:18.144Z,46.47
2019-02-27T22:51:47.380Z,46.70
2019-02-27T22:54:12.092Z,46.50
2019-02-27T22:59:45.382Z,45.87
2019-02-27T23:05:39.096Z,46.23
2019-02-27T23:08:06.065Z,46.57
2019-02-27T23:10:31.871Z,46.77
2019-02-27T23:12:57.659Z,45.93
2019-02-27T23:15:24.789Z,46.00
2019-02-27T23:17:51.251Z,47.93
2019-02-27T23:20:20.709Z,46.50
2019-02-27T23:23:05.397Z,45.10
2019-02-27T23:25:31.227Z,47.93
2019-02-27T23:27:57.582Z,48.00
2019-02-27T23:30:24.737Z,48.30
2019-02-27T23:32:50.538Z,46.40
2019-02-27T23:35:16.887Z,47.07
2019-02-27T23:38:04.159Z,50.43
2019-02-27T23:40:29.920Z,48.27
2019-02-27T23:42:55.701Z,50.77
2019-02-27T23:45:21.535Z,48.13
2019-02-27T23:47:47.325Z,51.63
2019-02-27T23:50:13.096Z,47.63
2019-02-27T23:52:38.892Z,49.80
2019-02-27T23:55:07.214Z,49.33
2019-02-27T23:57:32.428Z,49.50
2019-02-27T23:59:58.206Z,53.37
